Neah Bay, WA (98357)

03:02 PM PDT on April 20, 2018 (GMT -0700)
HRMR | | Change Station

Elev 13 ft 48.29 °N, 124.36 °W | Updated 3 seconds ago

Regn
Regn
50.2 °F
Feels Like 50.2 °F
N
1.3
Vind Växlande Vind from S/SV
Gusts 3.8 miles/tim

Idag
High -- | Low -- °F
--% Chance of Precip.
Yesterday
High -- | Low -- °F
Precip. -- tum
Lufttryck 30.22 tum
Sikt 10.0 miles
Molnigt Few 1600 ft
Växlande molnighet 3100 ft
Molnigt 4400 ft
Daggpunkt 47 °F
Luftfuktighet 90%
Rainfall 0.02 tum
Snow Depth Not available.
6:18 AM 8:17 PM
Första kvarteret, 28% visible
METAR KUIL 202153Z AUTO VRB04KT 10SM -RA FEW016 SCT031 OVC044 08/06 A3022 RMK AO2 SLP233 P0002 T00830056
Lufttryck 30.22 tum
Sikt 10.0 miles
Molnigt Few 1600 ft
Växlande molnighet 3100 ft
Molnigt 4400 ft
Daggpunkt 47 °F
Luftfuktighet 90%
Rainfall 0.02 tum
Snow Depth Not available.
6:18 AM 8:17 PM
Första kvarteret, 28% visible
METAR KUIL 202153Z AUTO VRB04KT 10SM -RA FEW016 SCT031 OVC044 08/06 A3022 RMK AO2 SLP233 P0002 T00830056

Get Severe Weather Alerts

Thanks for signing up!

Be on the lookout for a verification email in your inbox.

You'll start receiving the daily forecast at 6 AM.

×

10-Day Weather Forecast

Almanac

Astronomi

Apr. 20, 2018 Rise Set
Actual Time
Civil Twilight
Nautical Twilight
Astronomical Twilight
Månen
Length Of Visible Light
Dagens längd
Tomorrow will be .
, % of the Moon is Illuminated

Today's Extremes

State Highs State Lows

Community

WunderPhotos

Category 6

Welcome to Category 6. This is the collective home for Weather Underground's featured writeups by Dr. Jeff Masters (right), Bob Henson (left), Chris Burt, and other regular contributors.

Nearby

Air Quality

  Air Quality AQ Index Pollutant
Not available.

Snödjup

Station Depth Elevation

Earthquake Activity

Stad Distance Mag. Time & Date
Minimum magnitude displayed is 2.5.

Coastal Water Temperatures

Plats Temperatur

Stations

Nearby Weather Stations

Station Location Temp Vindavkylning Daggpunkt Luftfuktighet Vind Precip. Elev Uppdaterad Type
                   

Watches & Warnings

There are currently no watches in effect.